createdAt,value
2019-05-19T00:01:03.686Z,99.90
2019-05-19T00:03:36.440Z,99.90
2019-05-19T00:06:09.160Z,99.90
2019-05-19T00:08:41.512Z,99.90
2019-05-19T00:11:15.874Z,99.90
2019-05-19T00:13:48.300Z,99.90
2019-05-19T00:16:20.971Z,99.90
2019-05-19T00:18:53.550Z,99.90
2019-05-19T00:21:26.117Z,99.90
2019-05-19T00:23:59.872Z,99.90
2019-05-19T00:26:32.549Z,99.90
2019-05-19T00:29:05.817Z,99.90
2019-05-19T00:31:38.231Z,99.90
2019-05-19T00:34:10.696Z,99.90
2019-05-19T00:36:43.232Z,99.90
2019-05-19T00:39:15.603Z,99.90
2019-05-19T00:41:48.277Z,99.90
2019-05-19T00:44:21.108Z,99.90
2019-05-19T00:46:55.194Z,99.90
2019-05-19T00:52:19.919Z,99.90
2019-05-19T00:54:52.345Z,99.90
2019-05-19T00:57:26.407Z,99.90
2019-05-19T01:00:01.288Z,99.90
2019-05-19T01:02:35.531Z,99.90
2019-05-19T01:05:08.514Z,99.90
2019-05-19T01:07:41.285Z,99.90
2019-05-19T01:10:14.347Z,99.90
2019-05-19T01:12:47.267Z,99.90
2019-05-19T01:15:20.549Z,99.90
2019-05-19T01:17:52.847Z,99.90
2019-05-19T01:20:25.513Z,99.90
2019-05-19T01:22:58.326Z,99.90
2019-05-19T01:25:31.298Z,99.90
2019-05-19T01:28:03.667Z,99.90
2019-05-19T01:30:37.397Z,99.90
2019-05-19T01:33:10.915Z,99.90
2019-05-19T01:35:43.231Z,99.90
2019-05-19T01:38:15.778Z,99.90
2019-05-19T01:40:48.200Z,99.90
2019-05-19T01:43:20.740Z,99.90
2019-05-19T01:45:53.145Z,99.90
2019-05-19T01:48:27.996Z,99.90
2019-05-19T01:50:59.990Z,99.90
2019-05-19T01:53:32.525Z,99.90
2019-05-19T01:56:05.256Z,99.90
2019-05-19T01:58:37.808Z,99.90
2019-05-19T02:01:10.173Z,99.90
2019-05-19T02:03:42.544Z,99.90
2019-05-19T02:06:14.983Z,99.90
2019-05-19T02:08:47.396Z,99.90
2019-05-19T02:11:20.239Z,99.90
2019-05-19T02:13:54.746Z,99.90
2019-05-19T02:16:27.230Z,99.90
2019-05-19T02:18:59.774Z,99.90
2019-05-19T02:21:32.315Z,99.90
2019-05-19T02:24:05.055Z,99.90
2019-05-19T02:26:37.956Z,99.90
2019-05-19T02:29:21.566Z,99.90
2019-05-19T02:31:54.209Z,99.90
2019-05-19T02:34:27.009Z,99.90
2019-05-19T02:36:59.665Z,99.90
2019-05-19T02:39:32.273Z,99.90
2019-05-19T02:42:06.611Z,99.90
2019-05-19T02:44:40.335Z,99.90
2019-05-19T02:47:15.415Z,99.90
2019-05-19T02:49:50.013Z,99.90
2019-05-19T02:52:23.866Z,99.90
2019-05-19T02:54:59.923Z,99.90
2019-05-19T02:57:33.758Z,99.90
2019-05-19T03:00:08.215Z,99.90
2019-05-19T03:02:40.927Z,99.90
2019-05-19T03:05:13.867Z,99.90
2019-05-19T03:07:46.684Z,99.90
2019-05-19T03:10:19.275Z,99.90
2019-05-19T03:12:51.911Z,99.90
2019-05-19T03:15:24.574Z,99.90
2019-05-19T03:17:57.181Z,99.90
2019-05-19T03:20:29.723Z,99.90
2019-05-19T03:23:02.024Z,99.90
2019-05-19T03:25:34.485Z,99.90
2019-05-19T03:28:07.012Z,99.90
2019-05-19T03:31:01.196Z,99.90
2019-05-19T03:33:35.757Z,99.90
2019-05-19T03:36:09.673Z,99.90
2019-05-19T03:38:42.590Z,99.90
2019-05-19T03:41:14.993Z,99.90
2019-05-19T03:43:47.361Z,99.90
2019-05-19T03:46:20.054Z,99.90
2019-05-19T03:48:52.733Z,99.90
2019-05-19T03:51:30.878Z,99.90
2019-05-19T03:53:59.338Z,99.90
2019-05-19T03:56:31.954Z,99.90
2019-05-19T03:59:04.463Z,99.90
2019-05-19T04:01:36.803Z,99.90
2019-05-19T04:04:09.318Z,99.90
2019-05-19T04:06:41.756Z,99.90
2019-05-19T04:09:17.376Z,99.90
2019-05-19T04:11:48.678Z,99.90
2019-05-19T04:14:21.329Z,99.90
2019-05-19T04:16:53.626Z,99.90
2019-05-19T04:19:26.327Z,99.90
2019-05-19T04:21:58.960Z,99.90
2019-05-19T04:24:31.387Z,99.90
2019-05-19T04:27:04.374Z,99.90
2019-05-19T04:29:39.531Z,99.90
2019-05-19T04:32:11.549Z,99.90
2019-05-19T04:34:44.063Z,99.90
2019-05-19T04:37:17.797Z,99.90
2019-05-19T04:39:50.688Z,99.90
2019-05-19T04:42:23.360Z,99.90
2019-05-19T04:44:55.878Z,99.90
2019-05-19T04:47:28.513Z,99.90
2019-05-19T04:50:00.876Z,99.90
2019-05-19T04:52:33.414Z,99.90
2019-05-19T04:55:05.771Z,99.90
2019-05-19T04:57:49.491Z,99.90
2019-05-19T05:00:40.791Z,99.90
2019-05-19T05:03:14.752Z,99.90
2019-05-19T05:05:47.472Z,99.90
2019-05-19T05:08:29.723Z,99.90
2019-05-19T05:10:53.930Z,99.90
2019-05-19T05:13:26.646Z,99.90
2019-05-19T05:16:00.302Z,99.90
2019-05-19T05:18:33.078Z,99.90
2019-05-19T05:21:06.207Z,99.90
2019-05-19T05:23:38.937Z,99.90
2019-05-19T05:26:12.233Z,99.90
2019-05-19T05:28:45.039Z,99.90
2019-05-19T05:31:17.629Z,99.90
2019-05-19T05:33:50.641Z,99.90
2019-05-19T05:36:23.190Z,99.90
2019-05-19T05:38:55.730Z,99.90
2019-05-19T05:41:28.659Z,99.90
2019-05-19T05:44:01.698Z,99.90
2019-05-19T05:46:35.135Z,99.90
2019-05-19T05:49:07.782Z,99.90
2019-05-19T05:51:40.391Z,99.90
2019-05-19T05:54:12.800Z,99.90
2019-05-19T05:56:45.348Z,99.90
2019-05-19T05:59:18.631Z,99.90
2019-05-19T06:01:51.452Z,99.90
2019-05-19T06:04:24.028Z,99.90
2019-05-19T06:06:56.630Z,99.90
2019-05-19T06:09:30.088Z,99.90
2019-05-19T06:12:02.909Z,99.90
2019-05-19T06:14:35.329Z,99.90
2019-05-19T06:17:07.759Z,99.90
2019-05-19T06:19:40.653Z,99.90
2019-05-19T06:22:13.166Z,99.90
2019-05-19T06:24:45.870Z,99.90
2019-05-19T06:27:18.676Z,99.90
2019-05-19T06:29:51.196Z,99.90
2019-05-19T06:32:33.076Z,99.90
2019-05-19T06:35:05.540Z,99.90
2019-05-19T06:37:38.054Z,99.90
2019-05-19T06:40:11.295Z,99.90
2019-05-19T06:42:44.768Z,99.90
2019-05-19T06:45:18.666Z,99.90
2019-05-19T06:47:51.157Z,99.90
2019-05-19T06:50:23.806Z,99.90
2019-05-19T06:53:11.217Z,99.90
2019-05-19T06:55:30.515Z,99.90
2019-05-19T06:58:03.761Z,99.90
2019-05-19T07:00:36.391Z,99.90
2019-05-19T07:03:09.120Z,99.90
2019-05-19T07:05:42.728Z,99.90
2019-05-19T07:08:15.476Z,99.90
2019-05-19T07:10:48.406Z,99.90
2019-05-19T07:13:21.105Z,99.90
2019-05-19T07:15:53.897Z,99.90
2019-05-19T07:18:28.046Z,99.90
2019-05-19T07:21:00.426Z,99.90
2019-05-19T07:23:32.878Z,99.90
2019-05-19T07:26:05.446Z,99.90
2019-05-19T07:28:38.105Z,99.70
2019-05-19T07:31:10.545Z,99.40
2019-05-19T07:33:42.847Z,98.20
2019-05-19T07:36:15.377Z,97.80
2019-05-19T07:38:48.023Z,96.60
2019-05-19T07:41:20.563Z,96.70
2019-05-19T07:43:54.907Z,97.40
2019-05-19T07:46:26.856Z,97.30
2019-05-19T07:48:59.006Z,96.70
2019-05-19T07:51:31.041Z,96.60
2019-05-19T07:54:03.135Z,95.70
2019-05-19T07:56:35.074Z,95.30
2019-05-19T07:59:08.122Z,96.90
2019-05-19T08:01:40.681Z,98.40
2019-05-19T08:04:14.105Z,99.90
2019-05-19T08:06:46.928Z,99.90
2019-05-19T08:09:19.010Z,99.90
2019-05-19T08:11:51.014Z,99.90
2019-05-19T08:14:23.469Z,99.90
2019-05-19T08:16:55.498Z,99.90
2019-05-19T08:19:27.484Z,99.90
2019-05-19T08:21:59.507Z,99.90
2019-05-19T08:24:31.538Z,99.90
2019-05-19T08:27:03.879Z,99.90
2019-05-19T08:29:35.920Z,99.90
2019-05-19T08:32:08.508Z,99.90
2019-05-19T08:34:40.606Z,99.90
2019-05-19T08:37:12.661Z,99.10
2019-05-19T08:39:45.390Z,98.10
2019-05-19T08:42:17.721Z,97.30
2019-05-19T08:44:49.832Z,95.60
2019-05-19T08:47:21.878Z,94.70
2019-05-19T08:49:53.879Z,94.60
2019-05-19T08:52:25.858Z,95.50
2019-05-19T08:54:58.076Z,95.90
2019-05-19T08:57:30.167Z,96.60
2019-05-19T09:00:02.556Z,96.50
2019-05-19T09:02:34.534Z,95.60
2019-05-19T09:05:07.235Z,95.70
2019-05-19T09:07:39.879Z,94.80
2019-05-19T09:10:14.264Z,94.70
2019-05-19T09:12:46.777Z,94.60
2019-05-19T09:15:18.889Z,94.50
2019-05-19T09:17:54.000Z,95.00
2019-05-19T09:20:24.692Z,94.70
2019-05-19T09:22:57.829Z,94.70
2019-05-19T09:25:29.893Z,94.70
2019-05-19T09:28:02.023Z,93.70
2019-05-19T09:30:34.220Z,92.50
2019-05-19T09:33:06.433Z,92.10
2019-05-19T09:35:39.692Z,91.40
2019-05-19T09:38:12.540Z,91.40
2019-05-19T09:40:44.954Z,92.20
2019-05-19T09:43:17.658Z,92.30
2019-05-19T09:45:50.242Z,93.20
2019-05-19T09:48:23.087Z,93.10
2019-05-19T09:50:55.844Z,93.00
2019-05-19T09:53:28.356Z,92.00
2019-05-19T09:56:01.043Z,92.10
2019-05-19T09:58:33.874Z,92.50
2019-05-19T10:01:06.671Z,93.10
2019-05-19T10:03:39.566Z,93.40
2019-05-19T10:06:12.203Z,92.70
2019-05-19T10:09:12.334Z,93.10
2019-05-19T10:12:05.373Z,93.00
2019-05-19T10:14:38.545Z,93.20
2019-05-19T10:17:11.307Z,93.10
2019-05-19T10:19:44.266Z,93.80
2019-05-19T10:22:17.061Z,94.00
2019-05-19T10:24:59.658Z,94.00
2019-05-19T10:27:23.925Z,94.50
2019-05-19T10:29:56.365Z,93.80
2019-05-19T10:32:28.525Z,94.20
2019-05-19T10:35:00.573Z,94.40
2019-05-19T10:37:33.592Z,95.60
2019-05-19T10:40:07.049Z,96.80
2019-05-19T10:42:41.360Z,96.40
2019-05-19T10:45:13.698Z,97.30
2019-05-19T10:47:45.688Z,96.10
2019-05-19T10:50:18.518Z,98.20
2019-05-19T10:52:50.798Z,99.90
2019-05-19T10:55:35.591Z,99.90
2019-05-19T10:57:57.752Z,99.90
2019-05-19T11:00:30.271Z,99.90
2019-05-19T11:03:03.741Z,99.90
2019-05-19T11:05:36.258Z,99.90
2019-05-19T11:08:08.800Z,99.90
2019-05-19T11:10:41.934Z,99.90
2019-05-19T11:13:14.444Z,99.90
2019-05-19T11:15:47.041Z,99.90
2019-05-19T11:18:20.392Z,99.90
2019-05-19T11:20:53.059Z,99.90
2019-05-19T11:23:25.574Z,99.90
2019-05-19T11:25:58.426Z,99.90
2019-05-19T11:28:30.723Z,99.90
2019-05-19T11:31:03.991Z,99.60
2019-05-19T11:33:35.980Z,99.00
2019-05-19T11:36:07.996Z,98.30
2019-05-19T11:38:41.858Z,98.70
2019-05-19T11:41:14.518Z,98.00
2019-05-19T11:43:47.014Z,98.00
2019-05-19T11:46:20.178Z,98.40
2019-05-19T11:48:52.583Z,97.90
2019-05-19T11:51:25.129Z,98.00
2019-05-19T11:53:57.775Z,99.20
2019-05-19T11:56:30.719Z,99.20
2019-05-19T11:59:03.063Z,98.60
2019-05-19T12:01:35.712Z,98.40
2019-05-19T12:04:09.312Z,98.20
2019-05-19T12:06:41.917Z,98.30
2019-05-19T12:09:14.583Z,98.10
2019-05-19T12:11:46.958Z,98.60
2019-05-19T12:14:19.379Z,98.40
2019-05-19T12:16:52.762Z,99.00
2019-05-19T12:19:25.501Z,99.40
2019-05-19T12:21:57.908Z,99.90
2019-05-19T12:24:30.680Z,99.90
2019-05-19T12:27:03.151Z,99.90
2019-05-19T12:29:35.455Z,99.90
2019-05-19T12:32:07.915Z,99.90
2019-05-19T12:34:39.980Z,99.90
2019-05-19T12:37:12.155Z,99.90
2019-05-19T12:39:44.818Z,99.90
2019-05-19T12:42:17.453Z,99.90
2019-05-19T12:44:50.551Z,99.90
2019-05-19T12:47:23.230Z,99.90
2019-05-19T12:49:55.955Z,99.90
2019-05-19T12:52:36.113Z,99.90
2019-05-19T12:55:09.040Z,99.90
2019-05-19T12:57:41.156Z,99.90
2019-05-19T13:00:14.721Z,99.90
2019-05-19T13:02:46.840Z,99.90
2019-05-19T13:05:18.879Z,99.90
2019-05-19T13:07:51.934Z,99.90
2019-05-19T13:10:24.701Z,99.90
2019-05-19T13:12:56.722Z,99.90
2019-05-19T13:15:28.675Z,99.90
2019-05-19T13:18:00.761Z,99.90
2019-05-19T13:20:34.448Z,99.90
2019-05-19T13:23:06.609Z,99.90
2019-05-19T13:25:38.653Z,99.90
2019-05-19T13:28:13.477Z,99.90
2019-05-19T13:30:45.558Z,99.90
2019-05-19T13:33:17.678Z,99.90
2019-05-19T13:35:49.960Z,99.90
2019-05-19T13:38:22.060Z,99.90
2019-05-19T13:40:54.195Z,99.90
2019-05-19T13:43:27.295Z,99.90
2019-05-19T13:46:00.494Z,99.90
2019-05-19T13:48:32.512Z,99.90
2019-05-19T13:51:04.492Z,99.90
2019-05-19T13:53:36.634Z,99.90
2019-05-19T13:56:08.707Z,99.90
2019-05-19T13:58:42.386Z,99.90
2019-05-19T14:01:27.679Z,99.90
2019-05-19T14:03:52.092Z,99.90
2019-05-19T14:06:23.934Z,99.90
2019-05-19T14:08:56.310Z,99.90
2019-05-19T14:11:28.283Z,99.90
2019-05-19T14:14:00.271Z,99.90
2019-05-19T14:16:32.353Z,99.90
2019-05-19T14:19:04.408Z,99.90
2019-05-19T14:21:36.860Z,99.90
2019-05-19T14:24:09.367Z,99.90
2019-05-19T14:26:41.939Z,99.90
2019-05-19T14:29:14.427Z,99.90
2019-05-19T14:31:47.179Z,99.90
2019-05-19T14:34:19.756Z,99.90
2019-05-19T14:36:52.238Z,99.90
2019-05-19T14:39:25.334Z,99.90
2019-05-19T14:42:01.492Z,99.90
2019-05-19T14:44:34.103Z,99.90
2019-05-19T14:47:06.840Z,99.90
2019-05-19T14:49:39.297Z,99.90
2019-05-19T14:52:11.854Z,99.90
2019-05-19T14:54:44.247Z,99.90
2019-05-19T14:57:16.794Z,99.90
2019-05-19T14:59:49.342Z,99.90
2019-05-19T15:02:21.998Z,99.90
2019-05-19T15:04:54.451Z,99.90
2019-05-19T15:07:26.956Z,99.90
2019-05-19T15:09:59.727Z,99.90
2019-05-19T15:12:32.438Z,99.90
2019-05-19T15:15:05.946Z,99.90
2019-05-19T15:17:38.552Z,99.90
2019-05-19T15:20:12.026Z,99.90
2019-05-19T15:22:45.078Z,99.90
2019-05-19T15:25:18.637Z,99.90
2019-05-19T15:27:59.670Z,99.90
2019-05-19T15:30:25.824Z,99.90
2019-05-19T15:32:59.584Z,99.90
2019-05-19T15:35:32.107Z,99.90
2019-05-19T15:38:04.604Z,99.90
2019-05-19T15:40:37.242Z,99.90
2019-05-19T15:43:10.073Z,99.90
2019-05-19T15:45:42.720Z,99.90
2019-05-19T15:48:15.563Z,99.90
2019-05-19T15:50:48.266Z,99.90
2019-05-19T15:53:23.092Z,99.90
2019-05-19T15:55:55.847Z,99.90
2019-05-19T15:58:28.521Z,99.90
2019-05-19T16:01:01.136Z,99.90
2019-05-19T16:03:33.836Z,99.90
2019-05-19T16:06:07.701Z,99.90
2019-05-19T16:08:41.193Z,99.90
2019-05-19T16:11:15.014Z,99.90
2019-05-19T16:13:47.502Z,99.90
2019-05-19T16:16:20.160Z,99.90
2019-05-19T16:19:05.144Z,99.90
2019-05-19T16:21:37.794Z,99.90
2019-05-19T16:24:10.350Z,99.90
2019-05-19T16:26:42.953Z,99.90
2019-05-19T16:29:15.392Z,99.90
2019-05-19T16:31:47.914Z,99.90
2019-05-19T16:34:20.579Z,99.90
2019-05-19T16:36:53.383Z,99.90
2019-05-19T16:39:26.161Z,99.90
2019-05-19T16:41:58.820Z,99.90
2019-05-19T16:44:31.565Z,99.90
2019-05-19T16:47:03.966Z,99.90
2019-05-19T16:49:36.942Z,99.90
2019-05-19T16:52:10.072Z,99.90
2019-05-19T16:54:45.321Z,99.90
2019-05-19T16:57:17.888Z,99.90
2019-05-19T16:59:50.570Z,99.90
2019-05-19T17:02:23.145Z,99.90
2019-05-19T17:04:56.175Z,99.90
2019-05-19T17:07:29.255Z,99.90
2019-05-19T17:10:01.994Z,99.90
2019-05-19T17:12:34.626Z,99.90
2019-05-19T17:15:08.230Z,99.90
2019-05-19T17:17:41.097Z,99.90
2019-05-19T17:20:14.469Z,99.90
2019-05-19T17:22:47.437Z,99.90
2019-05-19T17:25:20.223Z,99.90
2019-05-19T17:27:52.608Z,99.90
2019-05-19T17:30:25.380Z,99.90
2019-05-19T17:32:58.156Z,99.90
2019-05-19T17:35:30.543Z,99.90
2019-05-19T17:38:03.110Z,99.90
2019-05-19T17:40:36.590Z,99.90
2019-05-19T17:43:09.267Z,99.90
2019-05-19T17:45:41.737Z,99.90
2019-05-19T17:48:26.127Z,99.90
2019-05-19T17:50:51.045Z,99.90
2019-05-19T17:53:24.133Z,99.90
2019-05-19T17:55:58.599Z,99.90
2019-05-19T17:58:31.994Z,99.90
2019-05-19T18:01:04.734Z,99.90
2019-05-19T18:03:39.039Z,99.90
2019-05-19T18:06:11.735Z,99.90
2019-05-19T18:08:44.154Z,99.90
2019-05-19T18:11:16.520Z,99.90
2019-05-19T18:13:49.018Z,99.90
2019-05-19T18:16:21.535Z,99.90
2019-05-19T18:18:54.356Z,99.90
2019-05-19T18:21:27.468Z,99.90
2019-05-19T18:24:00.002Z,99.90
2019-05-19T18:26:32.679Z,99.90
2019-05-19T18:29:05.555Z,99.90
2019-05-19T18:31:38.103Z,99.90
2019-05-19T18:34:11.022Z,99.90
2019-05-19T18:36:43.736Z,99.90
2019-05-19T18:39:16.866Z,99.90
2019-05-19T18:41:49.799Z,99.90
2019-05-19T18:44:22.695Z,99.90
2019-05-19T18:46:55.790Z,99.90
2019-05-19T18:49:28.547Z,99.90
2019-05-19T18:52:01.010Z,99.90
2019-05-19T18:54:34.087Z,99.90
2019-05-19T18:57:06.949Z,99.90
2019-05-19T18:59:47.294Z,99.90
2019-05-19T19:02:14.101Z,99.90
2019-05-19T19:04:46.737Z,99.90
2019-05-19T19:07:19.141Z,99.90
2019-05-19T19:09:51.825Z,99.90
2019-05-19T19:12:24.198Z,99.90
2019-05-19T19:14:56.727Z,99.90
2019-05-19T19:17:29.410Z,99.90
2019-05-19T19:20:01.931Z,99.90
2019-05-19T19:22:34.711Z,99.90
2019-05-19T19:25:07.985Z,99.90
2019-05-19T19:27:40.513Z,99.90
2019-05-19T19:30:15.523Z,99.90
2019-05-19T19:32:47.852Z,99.90
2019-05-19T19:35:20.448Z,99.90
2019-05-19T19:37:52.979Z,99.90
2019-05-19T19:40:32.330Z,99.90
2019-05-19T19:43:05.584Z,99.90
2019-05-19T19:45:38.412Z,99.90
2019-05-19T19:48:11.010Z,99.90
2019-05-19T19:50:43.548Z,99.90
2019-05-19T19:53:15.981Z,99.90
2019-05-19T19:55:48.641Z,99.90
2019-05-19T19:58:21.450Z,99.90
2019-05-19T20:00:54.335Z,99.90
2019-05-19T20:03:27.053Z,99.90
2019-05-19T20:05:59.718Z,99.90
2019-05-19T20:08:32.504Z,99.90
2019-05-19T20:11:05.310Z,99.90
2019-05-19T20:13:37.810Z,99.90
2019-05-19T20:16:10.443Z,99.90
2019-05-19T20:18:42.927Z,99.90
2019-05-19T20:21:15.603Z,99.90
2019-05-19T20:23:48.302Z,99.90
2019-05-19T20:26:20.717Z,99.90
2019-05-19T20:28:53.318Z,99.90
2019-05-19T20:31:25.762Z,99.90
2019-05-19T20:33:59.062Z,99.90
2019-05-19T20:36:31.717Z,99.90
2019-05-19T20:39:05.292Z,99.90
2019-05-19T20:41:37.936Z,99.90
2019-05-19T20:44:10.842Z,99.90
2019-05-19T20:46:43.626Z,99.90
2019-05-19T20:49:16.528Z,99.90
2019-05-19T20:51:49.241Z,99.90
2019-05-19T20:54:22.297Z,99.90
2019-05-19T20:56:54.696Z,99.90
2019-05-19T20:59:27.074Z,99.90
2019-05-19T21:01:59.546Z,99.90
2019-05-19T21:04:32.157Z,99.90
2019-05-19T21:07:07.683Z,99.90
2019-05-19T21:09:39.116Z,99.90
2019-05-19T21:12:11.676Z,99.90
2019-05-19T21:14:44.528Z,99.90
2019-05-19T21:17:16.938Z,99.90
2019-05-19T21:19:49.542Z,99.90
2019-05-19T21:22:22.584Z,99.90
2019-05-19T21:24:55.364Z,99.90
2019-05-19T21:27:28.077Z,99.90
2019-05-19T21:30:00.694Z,99.90
2019-05-19T21:32:33.449Z,99.90
2019-05-19T21:35:06.671Z,99.90
2019-05-19T21:37:39.450Z,99.90
2019-05-19T21:40:12.349Z,99.90
2019-05-19T21:42:45.535Z,99.90
2019-05-19T21:45:18.651Z,99.90
2019-05-19T21:47:50.749Z,99.90
2019-05-19T21:50:23.362Z,99.90
2019-05-19T21:53:14.926Z,99.90
2019-05-19T21:55:49.155Z,99.90
2019-05-19T21:58:22.007Z,99.90
2019-05-19T22:00:54.763Z,99.90
2019-05-19T22:03:27.202Z,99.90
2019-05-19T22:05:59.505Z,99.90
2019-05-19T22:08:32.812Z,99.90
2019-05-19T22:11:05.395Z,99.90
2019-05-19T22:13:38.024Z,99.90
2019-05-19T22:16:29.689Z,99.90
2019-05-19T22:19:02.303Z,99.90
2019-05-19T22:21:34.699Z,99.90
2019-05-19T22:24:07.171Z,99.90
2019-05-19T22:26:39.783Z,99.90
2019-05-19T22:29:12.223Z,99.90
2019-05-19T22:31:44.568Z,99.90
2019-05-19T22:34:17.221Z,99.90
2019-05-19T22:36:49.823Z,99.90
2019-05-19T22:39:22.613Z,99.90
2019-05-19T22:41:55.167Z,99.90
2019-05-19T22:44:28.027Z,99.90
2019-05-19T22:47:00.606Z,99.90
2019-05-19T22:49:32.954Z,99.90
2019-05-19T22:52:05.496Z,99.90
2019-05-19T22:54:38.045Z,99.90
2019-05-19T22:57:10.508Z,99.90
2019-05-19T22:59:42.904Z,99.90
2019-05-19T23:02:15.521Z,99.90
2019-05-19T23:04:48.096Z,99.90
2019-05-19T23:07:20.666Z,99.90
2019-05-19T23:09:53.329Z,99.90
2019-05-19T23:12:25.974Z,99.90
2019-05-19T23:14:58.630Z,99.90
2019-05-19T23:17:31.360Z,99.90
2019-05-19T23:20:03.864Z,99.90
2019-05-19T23:22:36.533Z,99.90
2019-05-19T23:25:09.533Z,99.90
2019-05-19T23:27:42.335Z,99.90
2019-05-19T23:30:15.609Z,99.90
2019-05-19T23:32:48.583Z,99.90
2019-05-19T23:35:21.211Z,99.90
2019-05-19T23:37:53.570Z,99.90
2019-05-19T23:40:26.103Z,99.90
2019-05-19T23:42:58.543Z,99.90
2019-05-19T23:45:31.389Z,99.90
2019-05-19T23:48:04.237Z,99.90
2019-05-19T23:50:36.943Z,99.90
2019-05-19T23:53:09.501Z,99.90
2019-05-19T23:55:41.935Z,99.90
2019-05-19T23:58:14.270Z,99.90
